Flight Track Log - Related Links

Times and Time Zones

All times are in EDT time to prevent confusion due to time zone crossing. See the EGF2907 flight status page for this flight to view local times or setup timezone preferences in your user account.

Time Position Orientation Groundspeed Altitude Reporting Facility
EDT Latitude Longitude Course Direction KTS MPH feet Rate Location/Type
Thu 05:15:16 PM 32.9000 -97.0333 57° Northeast 161 185 900  Level Dallas / Fort Worth TRACON
Thu 05:16:04 PM 32.8500 -97.0333 180° South 198 228 2,500 2,294 Climbing Dallas / Fort Worth TRACON
Thu 05:16:58 PM 32.8000 -97.0000 151° Southeast 220 253 4,800 2,526 Climbing Dallas / Fort Worth TRACON
Thu 05:17:00 PM 32.7827 -96.7911 53° Northeast  Level FlightAware Approximate
Thu 05:17:58 PM 32.7667 -96.9500 128° Southeast 225 259 7,300  Level Dallas / Fort Worth TRACON
Thu 05:18:00 PM 32.8425 -96.6954 53° Northeast  Level FlightAware Approximate
Thu 05:19:00 PM 32.9045 -96.6016 52° Northeast  Level FlightAware Approximate
Thu 05:19:04 PM 32.7667 -96.8500 90° East 278 320 9,100  Level Dallas / Fort Worth TRACON
Thu 05:20:00 PM 32.9646 -96.5062 57° Northeast  Level FlightAware Approximate
Thu 05:20:04 PM 32.8000 -96.7667 65° Northeast 330 380 10,200  Level Dallas / Fort Worth TRACON
Thu 05:21:43 PM 32.9019 -96.6242 50° Northeast 357 411 12,700 1,472 Climbing Fort Worth Center
Thu 05:22:43 PM 32.9536 -96.5369 55° Northeast 358 412 14,100 1,500 Climbing Fort Worth Center
Thu 05:23:43 PM 33.0194 -96.4347 52° Northeast 363 418 15,700 1,250 Climbing Fort Worth Center
Thu 05:24:43 PM 33.0564 -96.3353 66° East 356 410 16,600 1,000 Climbing Fort Worth Center
Thu 05:25:43 PM 33.0928 -96.2108 71° East 351 404 17,700 1,000 Climbing Fort Worth Center
Thu 05:26:43 PM 33.1250 -96.1061 70° East 356 410 18,600 1,000 Climbing Fort Worth Center
Thu 05:27:43 PM 33.1633 -95.9792 70° East 366 421 19,700 1,050 Climbing Fort Worth Center
Thu 05:28:43 PM 33.1975 -95.8692 70° East 371 427 20,700 1,050 Climbing Fort Worth Center
Thu 05:29:43 PM 33.2397 -95.7369 69° East 382 440 21,800 1,000 Climbing Fort Worth Center
Thu 05:30:43 PM 33.2736 -95.6244 70° East 388 447 22,700 950 Climbing Fort Worth Center
Thu 05:31:43 PM 33.3094 -95.4994 71° East 388 447 23,700 850 Climbing Fort Worth Center
Thu 05:32:43 PM 33.3428 -95.3744 72° East 393 452 24,400 550 Climbing Fort Worth Center
Thu 05:33:43 PM 33.3867 -95.2417 68° East 400 460 24,800 450 Climbing Fort Worth Center
Thu 05:34:43 PM 33.4261 -95.1086 70° East 412 474 25,300 550 Climbing Fort Worth Center
Thu 05:35:43 PM 33.4653 -94.9733 71° East 417 480 25,900 550 Climbing Fort Worth Center
Thu 05:36:43 PM 33.5083 -94.8375 69° East 417 480 26,400 550 Climbing Fort Worth Center
Thu 05:37:43 PM 33.5472 -94.6994 71° East 429 494 27,000 550 Climbing Fort Worth Center
Thu 05:38:43 PM 33.5900 -94.5633 69° East 434 499 27,500 550 Climbing Fort Worth Center
Thu 05:39:43 PM 33.6308 -94.4272 70° East 434 499 28,100 1,000 Climbing Fort Worth Center
Thu 05:40:43 PM 33.6714 -94.2911 70° East 434 499 29,500 1,450 Climbing Fort Worth Center
Thu 05:41:43 PM 33.7181 -94.1647 66° East 427 491 31,000 1,550 Climbing Fort Worth Center
Thu 05:42:43 PM 33.7756 -94.0475 59° Northeast 407 468 32,600 1,311 Climbing Fort Worth Center
Thu 05:44:46 PM 33.8911 -93.8178 59° Northeast 390 449 35,000 787 Climbing Memphis Center
Thu 05:45:46 PM 33.9508 -93.6950 60° Northeast 401 461 35,000  Level Memphis Center
Thu 05:46:46 PM 34.0125 -93.5697 59° Northeast 418 481 35,000  Level Memphis Center
Thu 05:47:46 PM 34.0742 -93.4467 59° Northeast 418 481 35,000  Level Memphis Center
Thu 05:48:46 PM 34.1311 -93.3256 60° Northeast 418 481 35,000  Level Memphis Center
Thu 05:49:46 PM 34.1925 -93.2022 59° Northeast 418 481 35,000  Level Memphis Center
Thu 05:50:46 PM 34.2517 -93.0786 60° Northeast 418 481 35,000  Level Memphis Center
Thu 05:51:46 PM 34.3128 -92.9547 59° Northeast 413 475 35,000  Level Memphis Center
Thu 05:52:46 PM 34.3675 -92.8281 62° Northeast 413 475 35,000  Level Memphis Center
Thu 05:53:46 PM 34.4261 -92.7064 60° Northeast 413 475 35,000  Level Memphis Center
Thu 05:54:46 PM 34.4869 -92.5819 59° Northeast 413 475 35,000  Level Memphis Center
Thu 05:55:46 PM 34.5453 -92.4600 60° Northeast 413 475 35,000  Level Memphis Center
Thu 05:56:46 PM 34.6036 -92.3353 60° Northeast 413 475 35,000  Level Memphis Center
Thu 05:57:46 PM 34.6642 -92.2081 60° Northeast 413 475 35,000  Level Memphis Center
Thu 05:58:46 PM 34.7367 -92.0983 51° Northeast 413 475 35,000  Level Memphis Center
Thu 05:59:46 PM 34.8194 -91.9964 45° Northeast 418 481 35,000  Level Memphis Center
Thu 06:00:46 PM 34.9083 -91.8842 46° Northeast 418 481 35,000  Level Memphis Center
Thu 06:01:46 PM 34.9889 -91.7817 46° Northeast 418 481 35,000  Level Memphis Center
Thu 06:02:46 PM 35.0692 -91.6789 46° Northeast 418 481 35,000  Level Memphis Center
Thu 06:03:46 PM 35.1475 -91.5761 47° Northeast 418 481 35,000  Level Memphis Center
Thu 06:04:46 PM 35.2278 -91.4756 46° Northeast 418 481 35,000  Level Memphis Center
Thu 06:05:46 PM 35.3058 -91.3722 47° Northeast 418 481 35,000  Level Memphis Center
Thu 06:06:46 PM 35.3900 -91.2636 46° Northeast 418 481 35,000  Level Memphis Center
Thu 06:07:46 PM 35.4700 -91.1653 45° Northeast 413 475 35,000  Level Memphis Center
Thu 06:08:46 PM 35.5500 -91.0561 48° Northeast 413 475 35,000  Level Memphis Center
Thu 06:09:46 PM 35.6297 -90.9522 47° Northeast 413 475 35,000  Level Memphis Center
Thu 06:10:46 PM 35.7011 -90.8506 49° Northeast 412 474 35,000  Level Memphis Center
Thu 06:11:46 PM 35.7764 -90.7511 48° Northeast 405 466 35,000  Level Memphis Center
Thu 06:12:00 PM 35.7888 -90.7297 48° Northeast  Level FlightAware Approximate
Thu 06:12:46 PM 35.8539 -90.6464 48° Northeast 400 460 35,000  Level Memphis Center
Thu 06:13:46 PM 35.9333 -90.5417 47° Northeast 406 467 35,700 950 Climbing Memphis Center
Thu 06:14:46 PM 36.0106 -90.4392 47° Northeast 406 467 36,900 650 Climbing Memphis Center
Thu 06:15:46 PM 36.0897 -90.3314 48° Northeast 406 467 37,000 50 Climbing Memphis Center
Thu 06:16:46 PM 36.1689 -90.2283 46° Northeast 406 467 37,000  Level Memphis Center
Thu 06:17:46 PM 36.2458 -90.1253 47° Northeast 406 467 37,000  Level Memphis Center
Thu 06:18:46 PM 36.3228 -90.0222 47° Northeast 406 467 37,000  Level Memphis Center
Thu 06:19:46 PM 36.4017 -89.9186 47° Northeast 406 467 37,000  Level Memphis Center
Thu 06:20:46 PM 36.4764 -89.8125 49° Northeast 400 460 37,000  Level Memphis Center
Thu 06:21:46 PM 36.5572 -89.7111 45° Northeast 400 460 37,000  Level Memphis Center
Thu 06:22:46 PM 36.6336 -89.6044 48° Northeast 400 460 37,000  Level Memphis Center
Thu 06:23:46 PM 36.7019 -89.5081 48° Northeast 400 460 37,000  Level Memphis Center
Thu 06:24:46 PM 36.7803 -89.3983 48° Northeast 405 466 37,000  Level Memphis Center
Thu 06:25:46 PM 36.8606 -89.2861 48° Northeast 417 480 37,000  Level Memphis Center
Thu 06:26:46 PM 36.9408 -89.1758 48° Northeast 417 480 37,000  Level Memphis Center
Thu 06:27:46 PM 37.0189 -89.0656 48° Northeast 417 480 37,000 -300 Level Memphis Center
Thu 06:28:46 PM 37.0989 -88.9525 48° Northeast 417 480 36,400 -750 Descending Memphis Center
Thu 06:29:46 PM 37.1747 -88.8444 49° Northeast 417 480 35,500 -950 Descending Memphis Center
Thu 06:30:46 PM 37.2525 -88.7361 48° Northeast 417 480 34,500 -950 Descending Memphis Center
Thu 06:31:46 PM 37.3281 -88.6303 48° Northeast 417 480 33,600 -930 Descending Memphis Center
Thu 06:33:53 PM 37.4956 -88.3858 49° Northeast 433 498 31,600 -825 Descending Indianapolis Center
Thu 06:34:55 PM 37.5778 -88.2697 48° Northeast 441 507 31,000 -290 Descending Indianapolis Center
Thu 06:35:57 PM 37.6550 -88.1411 53° Northeast 451 519 31,000  Level Indianapolis Center
Thu 06:36:59 PM 37.7100 -87.9964 64° Northeast 452 520 31,000  Level Indianapolis Center
Thu 06:38:02 PM 37.7733 -87.8286 64° Northeast 454 522 31,000  Level Indianapolis Center
Thu 06:39:04 PM 37.8289 -87.6853 64° Northeast 454 522 31,000  Level Indianapolis Center
Thu 06:40:06 PM 37.8844 -87.5419 64° Northeast 452 520 31,000 -48 Level Indianapolis Center
Thu 06:41:08 PM 37.9386 -87.3969 65° Northeast 455 524 30,900 -581 Descending Indianapolis Center
Thu 06:42:10 PM 37.9933 -87.2525 64° Northeast 457 526 29,800 -1,306 Descending Indianapolis Center
Thu 06:43:12 PM 38.0478 -87.1086 64° Northeast 456 525 28,200 -1,694 Descending Indianapolis Center
Thu 06:44:14 PM 38.1097 -86.9406 65° Northeast 446 513 26,300 -1,742 Descending Indianapolis Center
Thu 06:45:16 PM 38.1614 -86.8047 64° Northeast 438 504 24,600 -1,597 Descending Indianapolis Center
Thu 06:46:18 PM 38.2111 -86.6700 65° Northeast 428 493 23,000 -1,548 Descending Indianapolis Center
Thu 06:47:20 PM 38.2597 -86.5400 65° Northeast 415 478 21,400 -1,306 Descending Indianapolis Center
Thu 06:48:22 PM 38.3081 -86.4100 65° Northeast 409 471 20,300 -1,355 Descending Indianapolis Center
Thu 06:49:24 PM 38.3656 -86.2533 65° Northeast 408 470 18,600 -1,452 Descending Indianapolis Center
Thu 06:50:26 PM 38.4139 -86.1200 65° Northeast 412 474 17,300 -1,403 Descending Indianapolis Center
Thu 06:51:28 PM 38.4611 -85.9906 65° Northeast 406 467 15,700 -1,452 Descending Indianapolis Center
Thu 06:52:30 PM 38.5058 -85.8650 65° Northeast 390 449 14,300 -1,355 Descending Indianapolis Center
Thu 06:53:32 PM 38.5511 -85.7394 65° Northeast 388 447 12,900 -1,306 Descending Indianapolis Center
Thu 06:54:34 PM 38.5975 -85.6172 64° Northeast 383 441 11,600 -919 Descending Indianapolis Center
Thu 06:55:36 PM 38.6578 -85.4878 59° Northeast 371 427 11,000 -290 Descending Indianapolis Center
Thu 06:56:38 PM 38.7078 -85.3758 60° Northeast 367 422 11,000  Level Indianapolis Center
Thu 06:57:40 PM 38.7589 -85.2586 61° Northeast 378 435 11,000  Level Indianapolis Center
Thu 06:58:42 PM 38.8083 -85.1422 61° Northeast 374 430 11,000 -48 Level Indianapolis Center
Thu 06:59:44 PM 38.8581 -85.0278 61° Northeast 371 427 10,900 -629 Descending Indianapolis Center
Thu 07:00:46 PM 38.9078 -84.9114 61° Northeast 309 356 9,700 -1,029 Descending Indianapolis Center
Thu 07:01:29 PM 38.9333 -84.8500 62° Northeast 282 325 9,100 -757 Descending Cincinnati TRACON
Thu 07:02:29 PM 38.9833 -84.7833 46° Northeast 233 268 8,400 -992 Descending Cincinnati TRACON
Thu 07:03:30 PM 39.0333 -84.7833 360° North 215 247 7,100 -942 Descending Cincinnati TRACON
Thu 07:04:30 PM 39.1000 -84.7833 360° North 219 252 6,500 -1,050 Descending Cincinnati TRACON
Thu 07:05:30 PM 39.1667 -84.7833 360° North 217 250 5,000 -1,500 Descending Cincinnati TRACON
Thu 07:06:30 PM 39.1833 -84.7167 72° East 224 258 3,500 -1,250 Descending Cincinnati TRACON
Thu 07:07:30 PM 39.1333 -84.6667 142° Southeast 213 245 2,500 -1,100 Descending Cincinnati TRACON
Thu 07:08:30 PM 39.0833 -84.6667 180° South 148 170 1,300 -1,200 Descending Cincinnati TRACON

Login

Don't have an account? Register now (free) for customized features, flight alerts, and more!